createdAt,value
2022-12-01T00:01:16.684Z,34.87
2022-12-01T00:07:18.638Z,35.17
2022-12-01T00:13:20.794Z,35.20
2022-12-01T00:19:27.724Z,33.90
2022-12-01T00:25:31.312Z,32.30
2022-12-01T00:31:33.363Z,34.83
2022-12-01T00:37:35.831Z,35.10
2022-12-01T00:43:37.923Z,31.30
2022-12-01T00:49:40.310Z,33.67
2022-12-01T00:55:42.244Z,33.80
2022-12-01T01:01:44.237Z,36.00
2022-12-01T01:07:46.971Z,34.00
2022-12-01T01:13:48.897Z,35.00
2022-12-01T01:19:54.668Z,32.27
2022-12-01T01:26:13.947Z,32.63
2022-12-01T01:32:15.847Z,32.60
2022-12-01T01:38:17.798Z,36.63
2022-12-01T01:44:48.305Z,33.50
2022-12-01T01:50:50.219Z,32.70
2022-12-01T01:56:53.244Z,31.50
2022-12-01T02:02:58.033Z,34.00
2022-12-01T02:09:00.019Z,32.20
2022-12-01T02:15:36.816Z,32.60
2022-12-01T02:22:20.258Z,33.27
2022-12-01T02:28:34.085Z,31.37
2022-12-01T02:34:55.160Z,30.63
2022-12-01T02:41:29.501Z,30.60
2022-12-01T02:47:36.819Z,29.80
2022-12-01T02:53:38.771Z,30.90
2022-12-01T02:59:52.709Z,29.10
2022-12-01T03:06:20.709Z,28.37
2022-12-01T03:13:07.578Z,26.87
2022-12-01T03:19:19.932Z,29.77
2022-12-01T03:25:24.901Z,27.43
2022-12-01T03:31:33.221Z,27.40
2022-12-01T03:37:49.568Z,28.93
2022-12-01T03:44:14.050Z,26.00
2022-12-01T03:50:19.483Z,26.97
2022-12-01T03:56:28.895Z,27.13
2022-12-01T04:02:35.207Z,25.03
2022-12-01T04:08:37.733Z,23.40
2022-12-01T04:14:42.228Z,24.33
2022-12-01T04:20:46.928Z,23.97
2022-12-01T04:26:48.925Z,22.60
2022-12-01T04:32:54.184Z,20.90
2022-12-01T04:38:59.551Z,21.93
2022-12-01T04:45:01.575Z,24.23
2022-12-01T04:51:08.694Z,22.40
2022-12-01T04:57:10.663Z,21.83
2022-12-01T05:03:15.176Z,22.80
2022-12-01T05:09:18.008Z,22.77
2022-12-01T05:15:19.994Z,21.40
2022-12-01T05:21:21.880Z,23.23
2022-12-01T05:27:23.764Z,23.70
2022-12-01T05:33:27.650Z,21.57
2022-12-01T05:39:29.946Z,23.10
2022-12-01T05:45:32.369Z,23.17
2022-12-01T05:51:34.388Z,23.50
2022-12-01T05:57:38.870Z,24.07
2022-12-01T06:03:40.757Z,24.97
2022-12-01T06:09:42.640Z,24.97
2022-12-01T06:16:00.863Z,24.47
2022-12-01T06:22:03.315Z,23.50
2022-12-01T06:28:13.262Z,26.07
2022-12-01T06:34:15.194Z,24.17
2022-12-01T06:40:33.127Z,23.97
2022-12-01T06:46:35.158Z,25.20
2022-12-01T06:52:37.481Z,24.90
2022-12-01T06:58:39.380Z,26.77
2022-12-01T07:04:41.456Z,25.67
2022-12-01T07:10:46.385Z,23.73
2022-12-01T07:16:48.348Z,25.73
2022-12-01T07:22:53.986Z,25.13
2022-12-01T07:28:58.876Z,27.80
2022-12-01T07:35:00.830Z,26.63
2022-12-01T07:41:17.927Z,25.17
2022-12-01T07:47:22.886Z,26.83
2022-12-01T07:53:24.926Z,28.17
2022-12-01T07:59:26.855Z,29.77
2022-12-01T08:05:28.822Z,27.77
2022-12-01T08:11:33.287Z,27.83
2022-12-01T08:17:38.206Z,26.30
2022-12-01T08:23:58.590Z,19.10
2022-12-01T08:30:00.913Z,16.07
2022-12-01T08:36:11.406Z,15.83
2022-12-01T08:42:16.202Z,14.47
2022-12-01T08:48:24.323Z,13.83
2022-12-01T08:54:26.271Z,15.20
2022-12-01T09:00:37.984Z,14.90
2022-12-01T09:06:43.281Z,15.57
2022-12-01T09:12:45.234Z,15.20
2022-12-01T09:18:47.985Z,15.33
2022-12-01T09:24:50.026Z,14.40
2022-12-01T09:30:52.065Z,15.77
2022-12-01T09:36:58.565Z,17.37
2022-12-01T09:43:21.819Z,18.07
2022-12-01T09:50:00.398Z,16.03
2022-12-01T09:56:07.316Z,13.90
2022-12-01T10:02:43.644Z,18.10
2022-12-01T10:09:26.906Z,17.20
2022-12-01T10:15:50.068Z,16.57
2022-12-01T10:22:07.669Z,15.73
2022-12-01T10:28:37.107Z,15.37
2022-12-01T10:34:42.478Z,13.90
2022-12-01T10:40:44.887Z,14.50
2022-12-01T10:46:56.061Z,14.83
2022-12-01T10:52:57.961Z,15.17
2022-12-01T10:59:18.670Z,14.30
2022-12-01T11:05:36.868Z,13.27
2022-12-01T11:11:40.569Z,14.40
2022-12-01T11:17:43.910Z,13.17
2022-12-01T11:23:55.623Z,13.67
2022-12-01T11:30:22.136Z,13.30
2022-12-01T11:36:47.842Z,14.10
2022-12-01T11:43:06.624Z,11.30
2022-12-01T11:49:22.632Z,12.67
2022-12-01T11:55:29.711Z,14.30
2022-12-01T12:01:49.068Z,15.40
2022-12-01T12:08:21.996Z,15.33
2022-12-01T12:14:43.452Z,17.37
2022-12-01T12:21:07.857Z,17.07
2022-12-01T12:28:03.433Z,16.30
2022-12-01T12:34:26.421Z,17.57
2022-12-01T12:40:55.758Z,17.93
2022-12-01T12:47:00.496Z,18.17
2022-12-01T12:53:13.951Z,18.27
2022-12-01T12:59:53.569Z,18.43
2022-12-01T13:06:26.030Z,21.50
2022-12-01T13:12:35.086Z,18.13
2022-12-01T13:18:51.502Z,18.77
2022-12-01T13:24:53.451Z,18.90
2022-12-01T13:31:31.197Z,19.07
2022-12-01T13:37:41.723Z,21.27
2022-12-01T13:44:22.410Z,21.53
2022-12-01T13:50:47.276Z,22.03
2022-12-01T13:57:07.099Z,21.37
2022-12-01T14:03:20.713Z,20.33
2022-12-01T14:09:36.840Z,19.83
2022-12-01T14:15:43.753Z,19.50
2022-12-01T14:21:50.138Z,18.80
2022-12-01T14:27:59.161Z,19.10
2022-12-01T14:34:19.361Z,18.63
2022-12-01T14:40:28.115Z,19.10
2022-12-01T14:46:45.000Z,19.37
2022-12-01T14:52:58.325Z,21.83
2022-12-01T14:59:14.265Z,18.13
2022-12-01T15:11:52.131Z,20.07
2022-12-01T15:17:57.599Z,21.63
2022-12-01T15:24:08.531Z,20.43
2022-12-01T15:30:19.883Z,22.17
2022-12-01T15:36:34.676Z,23.90
2022-12-01T15:42:39.259Z,23.10
2022-12-01T15:48:41.623Z,22.13
2022-12-01T15:54:52.293Z,20.90
2022-12-01T16:01:30.235Z,20.27
2022-12-01T16:08:11.418Z,21.70
2022-12-01T16:14:26.638Z,20.23
2022-12-01T16:20:44.196Z,21.37
2022-12-01T16:27:06.549Z,20.30
2022-12-01T16:33:22.562Z,19.97
2022-12-01T16:39:24.443Z,21.20
2022-12-01T16:45:26.791Z,20.40
2022-12-01T16:51:35.510Z,22.30
2022-12-01T16:57:44.350Z,22.90
2022-12-01T17:03:46.257Z,21.40
2022-12-01T17:09:51.169Z,21.73
2022-12-01T17:22:11.237Z,20.53
2022-12-01T17:28:19.439Z,21.00
2022-12-01T17:34:21.414Z,20.77
2022-12-01T17:40:23.718Z,21.13
2022-12-01T17:46:25.760Z,17.20
2022-12-01T17:52:29.287Z,19.70
2022-12-01T17:58:31.259Z,20.20
2022-12-01T18:04:34.719Z,19.10
2022-12-01T18:10:37.307Z,19.73
2022-12-01T18:16:39.382Z,20.07
2022-12-01T18:22:41.389Z,20.43
2022-12-01T18:28:44.182Z,19.70
2022-12-01T18:34:46.058Z,19.10
2022-12-01T18:40:47.973Z,19.37
2022-12-01T18:46:50.571Z,18.53
2022-12-01T18:52:52.504Z,18.97
2022-12-01T18:59:07.060Z,19.00
2022-12-01T19:05:09.597Z,19.20
2022-12-01T19:11:15.162Z,18.20
2022-12-01T19:17:20.510Z,18.37
2022-12-01T19:23:25.137Z,17.53
2022-12-01T19:29:27.037Z,18.27
2022-12-01T19:35:29.487Z,17.17
2022-12-01T19:41:35.413Z,17.60
2022-12-01T19:47:43.500Z,18.07
2022-12-01T19:53:45.636Z,17.97
2022-12-01T19:59:47.545Z,18.67
2022-12-01T20:05:50.391Z,18.90
2022-12-01T20:11:53.991Z,18.77
2022-12-01T20:17:55.900Z,18.53
2022-12-01T20:24:04.444Z,18.53
2022-12-01T20:30:07.410Z,19.67
2022-12-01T20:36:18.944Z,19.23
2022-12-01T20:42:22.316Z,19.10
2022-12-01T20:48:33.952Z,19.27
2022-12-01T20:54:39.349Z,20.87
2022-12-01T21:00:44.317Z,19.80
2022-12-01T21:06:57.028Z,20.40
2022-12-01T21:13:25.052Z,20.10
2022-12-01T21:19:45.398Z,21.40
2022-12-01T21:25:49.002Z,20.60
2022-12-01T21:32:00.174Z,20.67
2022-12-01T21:38:11.182Z,20.33
2022-12-01T21:44:20.179Z,20.57
2022-12-01T21:50:27.232Z,21.77
2022-12-01T21:56:41.678Z,18.60
2022-12-01T22:02:52.898Z,19.50
2022-12-01T22:09:26.388Z,20.03
2022-12-01T22:22:09.112Z,21.20
2022-12-01T22:28:25.609Z,18.00
2022-12-01T22:34:29.281Z,15.83
2022-12-01T22:40:50.516Z,17.10
2022-12-01T22:46:52.554Z,17.67
2022-12-01T22:53:01.476Z,17.10
2022-12-01T22:59:16.562Z,16.83
2022-12-01T23:05:28.937Z,15.40
2022-12-01T23:11:30.897Z,18.60
2022-12-01T23:17:35.672Z,17.30
2022-12-01T23:23:40.500Z,15.67
2022-12-01T23:29:42.689Z,15.23
2022-12-01T23:35:48.926Z,16.83
2022-12-01T23:41:51.589Z,15.93
2022-12-01T23:47:56.087Z,15.80
2022-12-01T23:54:01.438Z,15.57
